sensor_id;sensor_type;location;lat;lon;timestamp;temperature;humidity
78467;SHT31;67759;51.972;5.650;2023-03-23T00:01:54;13.4;72.0
78467;SHT31;67759;51.972;5.650;2023-03-23T00:04:26;13.4;71.9
78467;SHT31;67759;51.972;5.650;2023-03-23T00:07:00;13.4;71.9
78467;SHT31;67759;51.972;5.650;2023-03-23T00:09:30;13.4;71.8
78467;SHT31;67759;51.972;5.650;2023-03-23T00:12:02;13.4;71.8
78467;SHT31;67759;51.972;5.650;2023-03-23T00:14:34;13.4;71.6
78467;SHT31;67759;51.972;5.650;2023-03-23T00:17:11;13.4;71.7
78467;SHT31;67759;51.972;5.650;2023-03-23T00:19:41;13.4;71.6
78467;SHT31;67759;51.972;5.650;2023-03-23T00:22:16;13.4;71.6
78467;SHT31;67759;51.972;5.650;2023-03-23T00:24:49;13.4;71.5
78467;SHT31;67759;51.972;5.650;2023-03-23T00:27:20;13.4;71.4
78467;SHT31;67759;51.972;5.650;2023-03-23T00:29:51;13.4;71.3
78467;SHT31;67759;51.972;5.650;2023-03-23T00:32:24;13.4;71.2
78467;SHT31;67759;51.972;5.650;2023-03-23T00:34:57;13.4;71.2
78467;SHT31;67759;51.972;5.650;2023-03-23T00:37:28;13.5;71.7
78467;SHT31;67759;51.972;5.650;2023-03-23T00:39:57;13.5;71.6
78467;SHT31;67759;51.972;5.650;2023-03-23T00:42:29;13.5;71.6
78467;SHT31;67759;51.972;5.650;2023-03-23T00:45:13;13.5;72.4
78467;SHT31;67759;51.972;5.650;2023-03-23T00:47:43;13.6;72.3
78467;SHT31;67759;51.972;5.650;2023-03-23T00:50:22;13.7;72.1
78467;SHT31;67759;51.972;5.650;2023-03-23T00:52:55;13.8;71.4
78467;SHT31;67759;51.972;5.650;2023-03-23T00:55:26;13.8;71.2
78467;SHT31;67759;51.972;5.650;2023-03-23T00:57:57;13.8;70.9
78467;SHT31;67759;51.972;5.650;2023-03-23T01:00:27;13.7;70.9
78467;SHT31;67759;51.972;5.650;2023-03-23T01:02:57;13.6;71.2
78467;SHT31;67759;51.972;5.650;2023-03-23T01:05:27;13.5;71.5
78467;SHT31;67759;51.972;5.650;2023-03-23T01:07:59;13.5;71.6
78467;SHT31;67759;51.972;5.650;2023-03-23T01:10:30;13.5;71.8
78467;SHT31;67759;51.972;5.650;2023-03-23T01:13:01;13.5;71.5
78467;SHT31;67759;51.972;5.650;2023-03-23T01:15:31;13.5;70.9
78467;SHT31;67759;51.972;5.650;2023-03-23T01:18:01;13.6;71.1
78467;SHT31;67759;51.972;5.650;2023-03-23T01:20:32;13.6;70.3
78467;SHT31;67759;51.972;5.650;2023-03-23T01:23:04;13.6;69.9
78467;SHT31;67759;51.972;5.650;2023-03-23T01:25:36;13.6;69.9
78467;SHT31;67759;51.972;5.650;2023-03-23T01:28:06;13.6;69.8
78467;SHT31;67759;51.972;5.650;2023-03-23T01:30:38;13.5;70.0
78467;SHT31;67759;51.972;5.650;2023-03-23T01:33:08;13.5;70.3
78467;SHT31;67759;51.972;5.650;2023-03-23T01:35:39;13.5;70.3
78467;SHT31;67759;51.972;5.650;2023-03-23T01:38:08;13.4;70.6
78467;SHT31;67759;51.972;5.650;2023-03-23T01:40:38;13.4;70.9
78467;SHT31;67759;51.972;5.650;2023-03-23T01:43:13;13.5;70.7
78467;SHT31;67759;51.972;5.650;2023-03-23T01:45:44;13.5;70.7
78467;SHT31;67759;51.972;5.650;2023-03-23T01:48:18;13.5;70.7
78467;SHT31;67759;51.972;5.650;2023-03-23T01:50:55;13.4;70.5
78467;SHT31;67759;51.972;5.650;2023-03-23T01:53:31;13.4;70.8
78467;SHT31;67759;51.972;5.650;2023-03-23T01:56:03;13.4;70.5
78467;SHT31;67759;51.972;5.650;2023-03-23T01:58:37;13.4;70.2
78467;SHT31;67759;51.972;5.650;2023-03-23T02:01:12;13.4;70.5
78467;SHT31;67759;51.972;5.650;2023-03-23T02:03:44;13.4;70.6
78467;SHT31;67759;51.972;5.650;2023-03-23T02:06:15;13.4;70.8
78467;SHT31;67759;51.972;5.650;2023-03-23T02:08:48;13.4;70.7
78467;SHT31;67759;51.972;5.650;2023-03-23T02:11:21;13.4;70.8
78467;SHT31;67759;51.972;5.650;2023-03-23T02:13:51;13.4;71.1
78467;SHT31;67759;51.972;5.650;2023-03-23T02:16:33;13.4;71.2
78467;SHT31;67759;51.972;5.650;2023-03-23T02:19:25;13.4;71.2
78467;SHT31;67759;51.972;5.650;2023-03-23T02:22:27;13.4;71.3
78467;SHT31;67759;51.972;5.650;2023-03-23T02:25:14;13.4;71.3
78467;SHT31;67759;51.972;5.650;2023-03-23T02:28:08;13.4;71.3
78467;SHT31;67759;51.972;5.650;2023-03-23T02:30:54;13.4;71.4
78467;SHT31;67759;51.972;5.650;2023-03-23T02:33:38;13.4;71.3
78467;SHT31;67759;51.972;5.650;2023-03-23T02:36:15;13.5;71.3
78467;SHT31;67759;51.972;5.650;2023-03-23T02:38:54;13.5;71.3
78467;SHT31;67759;51.972;5.650;2023-03-23T02:41:30;13.5;71.2
78467;SHT31;67759;51.972;5.650;2023-03-23T02:44:02;13.5;71.1
78467;SHT31;67759;51.972;5.650;2023-03-23T02:46:34;13.5;71.1
78467;SHT31;67759;51.972;5.650;2023-03-23T02:49:09;13.6;70.9
78467;SHT31;67759;51.972;5.650;2023-03-23T02:51:43;13.6;70.8
78467;SHT31;67759;51.972;5.650;2023-03-23T02:54:16;13.6;70.8
78467;SHT31;67759;51.972;5.650;2023-03-23T02:56:50;13.6;70.7
78467;SHT31;67759;51.972;5.650;2023-03-23T02:59:21;13.6;70.6
78467;SHT31;67759;51.972;5.650;2023-03-23T03:02:00;13.6;70.9
78467;SHT31;67759;51.972;5.650;2023-03-23T03:04:38;13.6;70.8
78467;SHT31;67759;51.972;5.650;2023-03-23T03:07:27;13.8;70.6
78467;SHT31;67759;51.972;5.650;2023-03-23T03:10:08;14.0;70.0
78467;SHT31;67759;51.972;5.650;2023-03-23T03:12:55;14.1;69.1
78467;SHT31;67759;51.972;5.650;2023-03-23T03:15:33;14.3;67.7
78467;SHT31;67759;51.972;5.650;2023-03-23T03:18:09;14.4;67.1
78467;SHT31;67759;51.972;5.650;2023-03-23T03:20:47;14.4;66.6
78467;SHT31;67759;51.972;5.650;2023-03-23T03:23:23;14.4;66.5
78467;SHT31;67759;51.972;5.650;2023-03-23T03:25:56;14.3;66.5
78467;SHT31;67759;51.972;5.650;2023-03-23T03:28:27;14.3;66.4
78467;SHT31;67759;51.972;5.650;2023-03-23T03:31:01;14.3;66.4
78467;SHT31;67759;51.972;5.650;2023-03-23T03:33:33;14.2;66.5
78467;SHT31;67759;51.972;5.650;2023-03-23T03:36:05;14.2;66.7
78467;SHT31;67759;51.972;5.650;2023-03-23T03:38:44;14.2;66.9
78467;SHT31;67759;51.972;5.650;2023-03-23T03:41:15;14.1;67.0
78467;SHT31;67759;51.972;5.650;2023-03-23T03:43:44;14.1;67.3
78467;SHT31;67759;51.972;5.650;2023-03-23T03:46:14;14.1;67.4
78467;SHT31;67759;51.972;5.650;2023-03-23T03:48:44;14.1;67.4
78467;SHT31;67759;51.972;5.650;2023-03-23T03:51:13;14.1;67.7
78467;SHT31;67759;51.972;5.650;2023-03-23T03:53:44;14.1;67.6
78467;SHT31;67759;51.972;5.650;2023-03-23T03:56:14;14.1;67.7
78467;SHT31;67759;51.972;5.650;2023-03-23T03:58:43;14.2;67.6
78467;SHT31;67759;51.972;5.650;2023-03-23T04:01:13;14.3;67.4
78467;SHT31;67759;51.972;5.650;2023-03-23T04:03:44;14.3;66.9
78467;SHT31;67759;51.972;5.650;2023-03-23T04:06:14;14.4;66.3
78467;SHT31;67759;51.972;5.650;2023-03-23T04:08:45;14.4;66.1
78467;SHT31;67759;51.972;5.650;2023-03-23T04:11:15;14.4;66.0
78467;SHT31;67759;51.972;5.650;2023-03-23T04:13:45;14.4;65.8
78467;SHT31;67759;51.972;5.650;2023-03-23T04:16:15;14.4;65.9
78467;SHT31;67759;51.972;5.650;2023-03-23T04:18:48;14.3;66.1
78467;SHT31;67759;51.972;5.650;2023-03-23T04:21:18;14.3;65.9
78467;SHT31;67759;51.972;5.650;2023-03-23T04:23:48;14.3;66.0
78467;SHT31;67759;51.972;5.650;2023-03-23T04:26:18;14.3;65.8
78467;SHT31;67759;51.972;5.650;2023-03-23T04:28:48;14.2;66.1
78467;SHT31;67759;51.972;5.650;2023-03-23T04:31:19;14.2;65.9
78467;SHT31;67759;51.972;5.650;2023-03-23T04:33:52;14.2;66.1
78467;SHT31;67759;51.972;5.650;2023-03-23T04:36:23;14.2;66.1
78467;SHT31;67759;51.972;5.650;2023-03-23T04:38:53;14.2;66.1
78467;SHT31;67759;51.972;5.650;2023-03-23T04:41:23;14.2;66.1
78467;SHT31;67759;51.972;5.650;2023-03-23T04:43:53;14.2;65.9
78467;SHT31;67759;51.972;5.650;2023-03-23T04:46:26;14.1;66.0
78467;SHT31;67759;51.972;5.650;2023-03-23T04:48:56;14.1;65.7
78467;SHT31;67759;51.972;5.650;2023-03-23T04:51:27;14.1;65.8
78467;SHT31;67759;51.972;5.650;2023-03-23T04:53:58;14.1;65.9
78467;SHT31;67759;51.972;5.650;2023-03-23T04:56:29;14.1;65.8
78467;SHT31;67759;51.972;5.650;2023-03-23T04:58:58;14.0;65.8
78467;SHT31;67759;51.972;5.650;2023-03-23T05:01:28;14.0;65.9
78467;SHT31;67759;51.972;5.650;2023-03-23T05:03:58;14.0;65.9
78467;SHT31;67759;51.972;5.650;2023-03-23T05:06:28;14.0;65.8
78467;SHT31;67759;51.972;5.650;2023-03-23T05:08:59;14.0;65.8
78467;SHT31;67759;51.972;5.650;2023-03-23T05:11:28;14.0;65.9
78467;SHT31;67759;51.972;5.650;2023-03-23T05:13:59;14.0;65.8
78467;SHT31;67759;51.972;5.650;2023-03-23T05:16:28;14.0;65.6
78467;SHT31;67759;51.972;5.650;2023-03-23T05:18:59;14.0;65.8
78467;SHT31;67759;51.972;5.650;2023-03-23T05:21:29;14.0;65.7
78467;SHT31;67759;51.972;5.650;2023-03-23T05:23:59;14.0;65.6
78467;SHT31;67759;51.972;5.650;2023-03-23T05:26:29;14.0;65.5
78467;SHT31;67759;51.972;5.650;2023-03-23T05:29:01;14.0;65.7
78467;SHT31;67759;51.972;5.650;2023-03-23T05:31:31;14.1;66.0
78467;SHT31;67759;51.972;5.650;2023-03-23T05:34:16;14.2;65.7
78467;SHT31;67759;51.972;5.650;2023-03-23T05:36:45;14.4;65.0
78467;SHT31;67759;51.972;5.650;2023-03-23T05:39:16;14.5;64.5
78467;SHT31;67759;51.972;5.650;2023-03-23T05:41:48;14.6;63.8
78467;SHT31;67759;51.972;5.650;2023-03-23T05:44:20;14.6;63.5
78467;SHT31;67759;51.972;5.650;2023-03-23T05:46:50;14.6;63.4
78467;SHT31;67759;51.972;5.650;2023-03-23T05:49:19;14.6;63.2
78467;SHT31;67759;51.972;5.650;2023-03-23T05:51:49;14.6;63.3
78467;SHT31;67759;51.972;5.650;2023-03-23T05:54:19;14.5;63.5
78467;SHT31;67759;51.972;5.650;2023-03-23T05:56:51;14.5;63.6
78467;SHT31;67759;51.972;5.650;2023-03-23T05:59:21;14.4;63.8
78467;SHT31;67759;51.972;5.650;2023-03-23T06:01:53;14.4;63.9
78467;SHT31;67759;51.972;5.650;2023-03-23T06:04:22;14.3;64.1
78467;SHT31;67759;51.972;5.650;2023-03-23T06:06:54;14.3;64.3
78467;SHT31;67759;51.972;5.650;2023-03-23T06:09:25;14.2;64.8
78467;SHT31;67759;51.972;5.650;2023-03-23T06:11:56;14.2;64.9
78467;SHT31;67759;51.972;5.650;2023-03-23T06:14:26;14.2;65.1
78467;SHT31;67759;51.972;5.650;2023-03-23T06:16:56;14.1;65.3
78467;SHT31;67759;51.972;5.650;2023-03-23T06:19:25;14.1;65.3
78467;SHT31;67759;51.972;5.650;2023-03-23T06:21:56;14.1;65.3
78467;SHT31;67759;51.972;5.650;2023-03-23T06:24:26;14.1;65.6
78467;SHT31;67759;51.972;5.650;2023-03-23T06:26:56;14.1;65.5
78467;SHT31;67759;51.972;5.650;2023-03-23T06:29:26;14.1;65.6
78467;SHT31;67759;51.972;5.650;2023-03-23T06:32:00;14.1;65.7
78467;SHT31;67759;51.972;5.650;2023-03-23T06:34:31;14.1;65.7
78467;SHT31;67759;51.972;5.650;2023-03-23T06:37:03;14.1;65.7
78467;SHT31;67759;51.972;5.650;2023-03-23T06:39:34;14.1;65.8
78467;SHT31;67759;51.972;5.650;2023-03-23T06:42:09;14.1;66.1
78467;SHT31;67759;51.972;5.650;2023-03-23T06:44:41;14.2;66.0
78467;SHT31;67759;51.972;5.650;2023-03-23T06:47:11;14.2;65.9
78467;SHT31;67759;51.972;5.650;2023-03-23T06:49:41;14.3;65.6
78467;SHT31;67759;51.972;5.650;2023-03-23T06:52:12;14.4;65.0
78467;SHT31;67759;51.972;5.650;2023-03-23T06:54:42;14.4;64.7
78467;SHT31;67759;51.972;5.650;2023-03-23T06:57:12;14.4;64.7
78467;SHT31;67759;51.972;5.650;2023-03-23T06:59:42;14.4;64.7
78467;SHT31;67759;51.972;5.650;2023-03-23T07:02:14;14.4;64.6
78467;SHT31;67759;51.972;5.650;2023-03-23T07:04:48;14.4;64.9
78467;SHT31;67759;51.972;5.650;2023-03-23T07:07:18;14.4;65.0
78467;SHT31;67759;51.972;5.650;2023-03-23T07:09:48;14.3;64.9
78467;SHT31;67759;51.972;5.650;2023-03-23T07:12:18;14.3;64.9
78467;SHT31;67759;51.972;5.650;2023-03-23T07:14:49;14.3;65.1
78467;SHT31;67759;51.972;5.650;2023-03-23T07:17:19;14.3;65.2
78467;SHT31;67759;51.972;5.650;2023-03-23T07:19:48;14.3;65.4
78467;SHT31;67759;51.972;5.650;2023-03-23T07:22:18;14.3;65.8
78467;SHT31;67759;51.972;5.650;2023-03-23T07:24:48;14.3;65.7
78467;SHT31;67759;51.972;5.650;2023-03-23T07:27:18;14.3;65.9
78467;SHT31;67759;51.972;5.650;2023-03-23T07:29:47;14.3;66.3
78467;SHT31;67759;51.972;5.650;2023-03-23T07:32:18;14.3;66.0
78467;SHT31;67759;51.972;5.650;2023-03-23T07:34:47;14.3;66.2
78467;SHT31;67759;51.972;5.650;2023-03-23T07:37:18;14.3;65.8
78467;SHT31;67759;51.972;5.650;2023-03-23T07:39:47;14.3;65.4
78467;SHT31;67759;51.972;5.650;2023-03-23T07:42:18;14.3;65.3
78467;SHT31;67759;51.972;5.650;2023-03-23T07:44:48;14.3;65.4
78467;SHT31;67759;51.972;5.650;2023-03-23T07:47:18;14.3;65.4
78467;SHT31;67759;51.972;5.650;2023-03-23T07:49:48;14.2;66.1
78467;SHT31;67759;51.972;5.650;2023-03-23T07:52:18;14.2;66.8
78467;SHT31;67759;51.972;5.650;2023-03-23T07:54:50;14.2;67.4
78467;SHT31;67759;51.972;5.650;2023-03-23T07:57:20;14.2;67.9
78467;SHT31;67759;51.972;5.650;2023-03-23T08:00:05;14.3;68.1
78467;SHT31;67759;51.972;5.650;2023-03-23T08:02:49;14.3;68.1
78467;SHT31;67759;51.972;5.650;2023-03-23T08:05:24;14.4;67.9
78467;SHT31;67759;51.972;5.650;2023-03-23T08:07:55;14.4;67.3
78467;SHT31;67759;51.972;5.650;2023-03-23T08:10:27;14.4;67.6
78467;SHT31;67759;51.972;5.650;2023-03-23T08:12:58;14.3;68.3
78467;SHT31;67759;51.972;5.650;2023-03-23T08:15:29;14.2;68.7
78467;SHT31;67759;51.972;5.650;2023-03-23T08:17:59;14.2;69.5
78467;SHT31;67759;51.972;5.650;2023-03-23T08:20:29;14.1;69.9
78467;SHT31;67759;51.972;5.650;2023-03-23T08:23:00;14.0;70.4
78467;SHT31;67759;51.972;5.650;2023-03-23T08:25:31;13.9;70.5
78467;SHT31;67759;51.972;5.650;2023-03-23T08:28:01;13.9;70.3
78467;SHT31;67759;51.972;5.650;2023-03-23T08:30:31;13.8;70.4
78467;SHT31;67759;51.972;5.650;2023-03-23T08:33:04;13.8;70.8
78467;SHT31;67759;51.972;5.650;2023-03-23T08:35:35;13.7;71.0
78467;SHT31;67759;51.972;5.650;2023-03-23T08:38:05;13.7;71.3
78467;SHT31;67759;51.972;5.650;2023-03-23T08:40:34;13.7;71.2
78467;SHT31;67759;51.972;5.650;2023-03-23T08:43:07;13.7;70.4
78467;SHT31;67759;51.972;5.650;2023-03-23T08:45:37;13.7;70.5
78467;SHT31;67759;51.972;5.650;2023-03-23T08:48:08;13.6;70.0
78467;SHT31;67759;51.972;5.650;2023-03-23T08:50:38;13.6;69.9
78467;SHT31;67759;51.972;5.650;2023-03-23T08:53:08;13.6;69.5
78467;SHT31;67759;51.972;5.650;2023-03-23T08:55:38;13.6;69.7
78467;SHT31;67759;51.972;5.650;2023-03-23T08:58:08;13.6;69.1
78467;SHT31;67759;51.972;5.650;2023-03-23T09:00:38;13.6;69.4
78467;SHT31;67759;51.972;5.650;2023-03-23T09:03:08;13.7;68.8
78467;SHT31;67759;51.972;5.650;2023-03-23T09:05:37;13.7;68.4
78467;SHT31;67759;51.972;5.650;2023-03-23T09:08:12;13.7;68.6
78467;SHT31;67759;51.972;5.650;2023-03-23T09:10:43;13.7;68.5
78467;SHT31;67759;51.972;5.650;2023-03-23T09:13:12;13.7;68.1
78467;SHT31;67759;51.972;5.650;2023-03-23T09:15:42;13.7;67.9
78467;SHT31;67759;51.972;5.650;2023-03-23T09:18:12;13.7;67.8
78467;SHT31;67759;51.972;5.650;2023-03-23T09:20:42;13.7;67.7
78467;SHT31;67759;51.972;5.650;2023-03-23T09:23:11;13.8;67.9
78467;SHT31;67759;51.972;5.650;2023-03-23T09:25:43;13.8;67.9
78467;SHT31;67759;51.972;5.650;2023-03-23T09:28:14;13.9;68.3
78467;SHT31;67759;51.972;5.650;2023-03-23T09:30:45;14.1;67.2
78467;SHT31;67759;51.972;5.650;2023-03-23T09:33:17;14.3;65.8
78467;SHT31;67759;51.972;5.650;2023-03-23T09:35:46;14.6;64.2
78467;SHT31;67759;51.972;5.650;2023-03-23T09:38:17;14.7;63.7
78467;SHT31;67759;51.972;5.650;2023-03-23T09:40:48;14.8;62.5
78467;SHT31;67759;51.972;5.650;2023-03-23T09:43:32;14.9;62.5
78467;SHT31;67759;51.972;5.650;2023-03-23T09:46:16;14.9;62.8
78467;SHT31;67759;51.972;5.650;2023-03-23T09:48:52;14.9;62.7
78467;SHT31;67759;51.972;5.650;2023-03-23T09:51:37;15.0;61.9
78467;SHT31;67759;51.972;5.650;2023-03-23T09:54:11;15.0;62.1
78467;SHT31;67759;51.972;5.650;2023-03-23T09:56:44;15.1;61.8
78467;SHT31;67759;51.972;5.650;2023-03-23T09:59:19;15.1;62.2
78467;SHT31;67759;51.972;5.650;2023-03-23T10:01:51;15.2;62.5
78467;SHT31;67759;51.972;5.650;2023-03-23T10:04:27;15.2;61.6
78467;SHT31;67759;51.972;5.650;2023-03-23T10:07:00;15.3;61.8
78467;SHT31;67759;51.972;5.650;2023-03-23T10:09:33;15.4;61.1
78467;SHT31;67759;51.972;5.650;2023-03-23T10:12:09;15.4;59.5
78467;SHT31;67759;51.972;5.650;2023-03-23T10:14:52;15.4;60.1
78467;SHT31;67759;51.972;5.650;2023-03-23T10:17:27;15.5;59.5
78467;SHT31;67759;51.972;5.650;2023-03-23T10:20:17;15.5;59.3
78467;SHT31;67759;51.972;5.650;2023-03-23T10:22:55;15.8;59.3
78467;SHT31;67759;51.972;5.650;2023-03-23T10:25:36;16.1;58.2
78467;SHT31;67759;51.972;5.650;2023-03-23T10:28:12;16.3;56.6
78467;SHT31;67759;51.972;5.650;2023-03-23T10:30:45;16.3;55.5
78467;SHT31;67759;51.972;5.650;2023-03-23T10:33:20;16.3;56.5
78467;SHT31;67759;51.972;5.650;2023-03-23T10:35:56;16.4;56.6
78467;SHT31;67759;51.972;5.650;2023-03-23T10:38:33;16.4;56.6
78467;SHT31;67759;51.972;5.650;2023-03-23T10:41:08;16.5;55.5
78467;SHT31;67759;51.972;5.650;2023-03-23T10:43:39;16.5;55.2
78467;SHT31;67759;51.972;5.650;2023-03-23T10:46:22;16.5;54.9
78467;SHT31;67759;51.972;5.650;2023-03-23T10:48:59;16.5;53.5
78467;SHT31;67759;51.972;5.650;2023-03-23T10:51:35;16.5;54.5
78467;SHT31;67759;51.972;5.650;2023-03-23T10:54:08;16.5;53.6
78467;SHT31;67759;51.972;5.650;2023-03-23T10:56:39;16.5;53.3
78467;SHT31;67759;51.972;5.650;2023-03-23T10:59:19;16.6;53.5
78467;SHT31;67759;51.972;5.650;2023-03-23T11:01:51;16.6;53.0
78467;SHT31;67759;51.972;5.650;2023-03-23T11:04:25;16.7;52.1
78467;SHT31;67759;51.972;5.650;2023-03-23T11:07:02;16.7;51.6
78467;SHT31;67759;51.972;5.650;2023-03-23T11:09:37;16.8;52.2
78467;SHT31;67759;51.972;5.650;2023-03-23T11:12:18;16.9;52.7
78467;SHT31;67759;51.972;5.650;2023-03-23T11:14:50;17.0;52.0
78467;SHT31;67759;51.972;5.650;2023-03-23T11:17:24;17.1;53.1
78467;SHT31;67759;51.972;5.650;2023-03-23T11:19:55;17.2;51.7
78467;SHT31;67759;51.972;5.650;2023-03-23T11:22:27;17.2;52.5
78467;SHT31;67759;51.972;5.650;2023-03-23T11:25:01;17.3;51.7
78467;SHT31;67759;51.972;5.650;2023-03-23T11:27:32;17.3;51.6
78467;SHT31;67759;51.972;5.650;2023-03-23T11:30:11;17.2;52.0
78467;SHT31;67759;51.972;5.650;2023-03-23T11:32:46;17.2;51.8
78467;SHT31;67759;51.972;5.650;2023-03-23T11:35:21;17.1;52.0
78467;SHT31;67759;51.972;5.650;2023-03-23T11:37:53;17.0;52.4
78467;SHT31;67759;51.972;5.650;2023-03-23T11:40:25;16.9;52.4
78467;SHT31;67759;51.972;5.650;2023-03-23T11:43:00;16.9;54.7
78467;SHT31;67759;51.972;5.650;2023-03-23T11:45:36;16.9;55.3
78467;SHT31;67759;51.972;5.650;2023-03-23T11:48:18;17.0;55.0
78467;SHT31;67759;51.972;5.650;2023-03-23T11:50:53;17.0;53.5
78467;SHT31;67759;51.972;5.650;2023-03-23T11:53:34;17.1;52.9
78467;SHT31;67759;51.972;5.650;2023-03-23T11:56:17;17.1;53.3
78467;SHT31;67759;51.972;5.650;2023-03-23T11:58:48;17.2;51.6
78467;SHT31;67759;51.972;5.650;2023-03-23T12:01:29;17.3;51.0
78467;SHT31;67759;51.972;5.650;2023-03-23T12:04:18;17.3;51.0
78467;SHT31;67759;51.972;5.650;2023-03-23T12:07:00;17.4;50.9
78467;SHT31;67759;51.972;5.650;2023-03-23T12:09:46;17.4;50.6
78467;SHT31;67759;51.972;5.650;2023-03-23T12:12:23;17.5;50.5
78467;SHT31;67759;51.972;5.650;2023-03-23T12:15:05;17.6;50.7
78467;SHT31;67759;51.972;5.650;2023-03-23T12:17:48;17.6;50.1
78467;SHT31;67759;51.972;5.650;2023-03-23T12:20:27;17.6;53.4
78467;SHT31;67759;51.972;5.650;2023-03-23T12:23:05;17.6;54.9
78467;SHT31;67759;51.972;5.650;2023-03-23T12:26:01;17.4;55.1
78467;SHT31;67759;51.972;5.650;2023-03-23T12:28:53;16.5;58.7
78467;SHT31;67759;51.972;5.650;2023-03-23T12:31:39;15.5;63.1
78467;SHT31;67759;51.972;5.650;2023-03-23T12:34:21;14.9;65.9
78467;SHT31;67759;51.972;5.650;2023-03-23T12:37:07;14.6;67.2
78467;SHT31;67759;51.972;5.650;2023-03-23T12:40:06;14.3;68.5
78467;SHT31;67759;51.972;5.650;2023-03-23T12:42:54;14.1;70.9
78467;SHT31;67759;51.972;5.650;2023-03-23T12:45:51;14.1;72.7
78467;SHT31;67759;51.972;5.650;2023-03-23T12:48:28;14.2;72.4
78467;SHT31;67759;51.972;5.650;2023-03-23T12:51:14;14.2;70.8
78467;SHT31;67759;51.972;5.650;2023-03-23T12:53:52;14.3;70.8
78467;SHT31;67759;51.972;5.650;2023-03-23T12:56:28;14.3;71.7
78467;SHT31;67759;51.972;5.650;2023-03-23T12:59:06;14.3;69.8
78467;SHT31;67759;51.972;5.650;2023-03-23T13:01:41;14.3;70.4
78467;SHT31;67759;51.972;5.650;2023-03-23T13:04:16;14.4;69.7
78467;SHT31;67759;51.972;5.650;2023-03-23T13:06:49;14.4;69.6
78467;SHT31;67759;51.972;5.650;2023-03-23T13:09:25;14.4;67.9
78467;SHT31;67759;51.972;5.650;2023-03-23T13:11:59;14.4;66.5
78467;SHT31;67759;51.972;5.650;2023-03-23T13:14:41;14.3;68.9
78467;SHT31;67759;51.972;5.650;2023-03-23T13:17:24;14.3;69.0
78467;SHT31;67759;51.972;5.650;2023-03-23T13:20:04;14.4;70.8
78467;SHT31;67759;51.972;5.650;2023-03-23T13:22:43;14.4;70.2
78467;SHT31;67759;51.972;5.650;2023-03-23T13:25:29;14.5;68.6
78467;SHT31;67759;51.972;5.650;2023-03-23T13:28:02;14.6;68.2
78467;SHT31;67759;51.972;5.650;2023-03-23T13:30:32;14.7;68.1
78467;SHT31;67759;51.972;5.650;2023-03-23T13:33:11;14.8;66.9
78467;SHT31;67759;51.972;5.650;2023-03-23T13:35:42;14.9;67.5
78467;SHT31;67759;51.972;5.650;2023-03-23T13:38:20;15.1;65.1
78467;SHT31;67759;51.972;5.650;2023-03-23T13:40:51;15.2;63.9
78467;SHT31;67759;51.972;5.650;2023-03-23T13:43:30;15.3;63.0
78467;SHT31;67759;51.972;5.650;2023-03-23T13:46:10;15.3;63.5
78467;SHT31;67759;51.972;5.650;2023-03-23T13:48:46;15.4;63.6
78467;SHT31;67759;51.972;5.650;2023-03-23T13:51:46;15.5;63.2
78467;SHT31;67759;51.972;5.650;2023-03-23T13:54:37;15.6;62.0
78467;SHT31;67759;51.972;5.650;2023-03-23T13:57:24;15.7;62.4
78467;SHT31;67759;51.972;5.650;2023-03-23T14:00:24;15.8;62.2
78467;SHT31;67759;51.972;5.650;2023-03-23T14:03:01;15.8;62.9
78467;SHT31;67759;51.972;5.650;2023-03-23T14:05:37;15.8;64.4
78467;SHT31;67759;51.972;5.650;2023-03-23T14:08:14;15.9;63.5
78467;SHT31;67759;51.972;5.650;2023-03-23T14:10:53;15.9;62.8
78467;SHT31;67759;51.972;5.650;2023-03-23T14:13:31;15.9;64.0
78467;SHT31;67759;51.972;5.650;2023-03-23T14:16:04;15.9;63.4
78467;SHT31;67759;51.972;5.650;2023-03-23T14:18:36;15.9;62.8
78467;SHT31;67759;51.972;5.650;2023-03-23T14:21:15;15.9;63.7
78467;SHT31;67759;51.972;5.650;2023-03-23T14:23:49;15.9;62.2
78467;SHT31;67759;51.972;5.650;2023-03-23T14:26:20;15.9;61.0
78467;SHT31;67759;51.972;5.650;2023-03-23T14:28:53;16.0;60.2
78467;SHT31;67759;51.972;5.650;2023-03-23T14:31:25;16.0;60.0
78467;SHT31;67759;51.972;5.650;2023-03-23T14:34:00;16.0;60.4
78467;SHT31;67759;51.972;5.650;2023-03-23T14:36:31;16.1;59.5
78467;SHT31;67759;51.972;5.650;2023-03-23T14:39:13;16.1;60.0
78467;SHT31;67759;51.972;5.650;2023-03-23T14:41:41;16.2;58.7
78467;SHT31;67759;51.972;5.650;2023-03-23T14:44:16;16.3;58.4
78467;SHT31;67759;51.972;5.650;2023-03-23T14:46:47;16.4;59.9
78467;SHT31;67759;51.972;5.650;2023-03-23T14:49:23;16.5;59.2
78467;SHT31;67759;51.972;5.650;2023-03-23T14:51:55;16.6;57.7
78467;SHT31;67759;51.972;5.650;2023-03-23T14:54:27;16.7;57.2
78467;SHT31;67759;51.972;5.650;2023-03-23T14:57:15;16.8;57.8
78467;SHT31;67759;51.972;5.650;2023-03-23T14:59:47;16.9;58.1
78467;SHT31;67759;51.972;5.650;2023-03-23T15:02:25;17.2;56.1
78467;SHT31;67759;51.972;5.650;2023-03-23T15:05:09;17.6;55.0
78467;SHT31;67759;51.972;5.650;2023-03-23T15:07:44;17.9;53.3
78467;SHT31;67759;51.972;5.650;2023-03-23T15:10:19;18.0;52.1
78467;SHT31;67759;51.972;5.650;2023-03-23T15:12:54;18.1;52.0
78467;SHT31;67759;51.972;5.650;2023-03-23T15:15:29;18.2;51.7
78467;SHT31;67759;51.972;5.650;2023-03-23T15:18:03;18.3;51.7
78467;SHT31;67759;51.972;5.650;2023-03-23T15:20:47;18.3;50.1
78467;SHT31;67759;51.972;5.650;2023-03-23T15:23:26;18.3;50.2
78467;SHT31;67759;51.972;5.650;2023-03-23T15:26:03;18.3;51.5
78467;SHT31;67759;51.972;5.650;2023-03-23T15:28:40;18.3;53.1
78467;SHT31;67759;51.972;5.650;2023-03-23T15:31:10;18.4;52.0
78467;SHT31;67759;51.972;5.650;2023-03-23T15:33:42;18.5;51.9
78467;SHT31;67759;51.972;5.650;2023-03-23T15:36:17;18.5;51.4
78467;SHT31;67759;51.972;5.650;2023-03-23T15:38:47;18.6;50.5
78467;SHT31;67759;51.972;5.650;2023-03-23T15:41:27;18.6;50.8
78467;SHT31;67759;51.972;5.650;2023-03-23T15:44:08;18.6;50.8
78467;SHT31;67759;51.972;5.650;2023-03-23T15:46:33;18.6;51.5
78467;SHT31;67759;51.972;5.650;2023-03-23T15:49:08;18.6;51.2
78467;SHT31;67759;51.972;5.650;2023-03-23T15:51:44;18.7;50.5
78467;SHT31;67759;51.972;5.650;2023-03-23T15:54:15;18.7;50.3
78467;SHT31;67759;51.972;5.650;2023-03-23T15:56:45;18.7;52.3
78467;SHT31;67759;51.972;5.650;2023-03-23T15:59:14;18.7;50.1
78467;SHT31;67759;51.972;5.650;2023-03-23T16:01:44;18.6;50.4
78467;SHT31;67759;51.972;5.650;2023-03-23T16:04:17;18.6;51.3
78467;SHT31;67759;51.972;5.650;2023-03-23T16:06:51;18.5;51.4
78467;SHT31;67759;51.972;5.650;2023-03-23T16:09:22;18.5;51.0
78467;SHT31;67759;51.972;5.650;2023-03-23T16:11:52;18.5;51.7
78467;SHT31;67759;51.972;5.650;2023-03-23T16:14:22;18.4;51.7
78467;SHT31;67759;51.972;5.650;2023-03-23T16:16:51;18.4;51.2
78467;SHT31;67759;51.972;5.650;2023-03-23T16:19:23;18.3;51.3
78467;SHT31;67759;51.972;5.650;2023-03-23T16:21:53;18.3;52.1
78467;SHT31;67759;51.972;5.650;2023-03-23T16:24:22;18.3;50.3
78467;SHT31;67759;51.972;5.650;2023-03-23T16:26:54;18.2;50.9
78467;SHT31;67759;51.972;5.650;2023-03-23T16:29:25;18.1;52.7
78467;SHT31;67759;51.972;5.650;2023-03-23T16:31:57;18.1;51.8
78467;SHT31;67759;51.972;5.650;2023-03-23T16:34:27;18.1;51.7
78467;SHT31;67759;51.972;5.650;2023-03-23T16:37:00;18.1;51.1
78467;SHT31;67759;51.972;5.650;2023-03-23T16:39:30;18.1;51.1
78467;SHT31;67759;51.972;5.650;2023-03-23T16:42:00;18.0;50.8
78467;SHT31;67759;51.972;5.650;2023-03-23T16:44:29;17.9;51.2
78467;SHT31;67759;51.972;5.650;2023-03-23T16:46:59;17.8;52.4